AirNav   Everest Fuels
 
 1648 users online  

C08 Silver West Airport
Westcliffe, Colorado, USA

GOING TO WESTCLIFFE?


FAA INFORMATION EFFECTIVE 02 JANUARY 2020

Location

FAA Identifier: C08
Lat/Long: 38-00-47.8000N 105-22-27.3800W
38-00.796667N 105-22.456333W
38.0132778,-105.3742722
(estimated)
Elevation: 8290 ft. / 2527 m (estimated)
Variation: 11E (1985)
From city: 9 miles SE of WESTCLIFFE, CO
Time zone: UTC -7 (UTC -6 during Daylight Saving Time)
Zip code: 81252

Airport Operations

Airport use: Open to the public
Activation date: 04/1973
Control tower: no
ARTCC: DENVER CENTER
FSS: DENVER FLIGHT SERVICE STATION
NOTAMs facility: DEN (NOTAM-D service available)
Attendance: UNATNDD
Wind indicator: yes
Segmented circle: yes

Airport Communications

CTAF: 122.9

Airport Services

Fuel available: 100LL
24 HR SELF SERVE FUEL.
Parking: tiedowns
Airframe service: NONE
Powerplant service: NONE
Bottled oxygen: NONE
Bulk oxygen: NONE

Runway Information

Runway 13/31

Dimensions: 6954 x 55 ft. / 2120 x 17 m
Surface: asphalt, in good condition
HAS VARYING TERRAIN HEIGHTS FROM -5 TO +12 FT ALONG FULL LENGTH OF RY INSIDE OF PRIMARY SURFACE.
RUNWAY 13  RUNWAY 31
Latitude: 38-01.282500N38-00.310833N
Longitude: 105-22.840000W105-22.072667W
Elevation: 8274.0 ft.
Traffic pattern: rightleft
Markings: basic, in good conditionbasic, in good condition
Obstructions: none10 ft. gnd, 201 ft. from runway
HAS +12 FT TERRAIN 120 FT FM THLD 0B.

Airport Ownership and Management from official FAA records

Ownership: Publicly-owned
Owner: CUSTER COUNTY, COLORADO
360 CR 310, P.O. BOX 150
WESTCLIFFE, CO 81252
Phone 719-783-2695
Manager: ROBERT JOLEY
P.O. BOX 150
WESTCLIFFE, CO 81252
Phone 719-783-2286

Airport Operational Statistics

Aircraft based on the field: 25
Single engine airplanes: 23
Jet airplanes: 1
Gliders airplanes: 1
  • FREQUENT GLIDER USE.
    
Aircraft operations: avg 89/week *
58% local general aviation
39% transient general aviation
4% military
* for 12-month period ending 31 December 2017

Additional Remarks

RY 13/31 HAS +15 FT HWY 120 FT WEST OF & PARALLEL TO CNTRLN FULL LENGTH, +4 FT FENCE 100 FT WEST OF & PARALLEL TO CNTRLN FULL LENGTH.
OCCASIONAL DEER & ELK ON RY 13/31.
PUBLIC USE TELEPHONE AND FREE WIFI AVBL.
BE ALERT; INTENSIVE USAF STUDENT TRAINING IN VICINITY OF COLORADO SPRINGS & PUEBLO COLORADO.
FOR CD CTC DENVER ARTCC AT 303-651-4257.

Instrument Procedures

There are no published instrument procedures at C08.

Some nearby airports with instrument procedures:

1V6 - Fremont County Airport (28 nm NE)
4V1 - Spanish Peaks Airfield (34 nm SE)
KALS - San Luis Valley Regional Airport/Bergman Field (42 nm SW)
KMVI - Monte Vista Municipal Airport (43 nm SW)
KPUB - Pueblo Memorial Airport (45 nm E)
 
Loc | Ops | Rwys | IFR | FBO | Links
Com | Nav | Svcs | Stats | Notes

AirBoss

 
Area around C08 (Silver West Airport)
 
Road maps at: MapQuest Bing Google
 
Aerial photo
WARNING: Photo may not be current or correct
Aerial photo of C08 (Silver West Airport)
Photo by David Newcomer
Photo taken 31-Mar-2012
from 13,500' looking northwest.

Do you have a better or more recent aerial photo of Silver West Airport that you would like to share? If so, please send us your photo.

 
Sectional chart

 
Airport distance calculator
Flying to Silver West Airport? Find the distance to fly.

From to C08

Sunrise and sunset
Times for 20-Jan-2020
 Local
(UTC-7)
 Zulu
(UTC)
Morning civil twilight06:4713:47
Sunrise07:1514:15
Sunset17:1000:10
Evening civil twilight17:3800:38

Current date and time
Zulu (UTC)  20-Jan-2020 16:27:16
Local (UTC-7)  20-Jan-2020 09:27:16
 
METAR
KALS 
42nm SW 
201552Z AUTO 00000KT 10SM CLR M16/M17 A3051 RMK AO2 SLP437 T11561172 $
KPUB 
44nm E 
201553Z 00000KT 10SM CLR M04/M11 A3041 RMK AO2 SLP338 T10391106 $
KANK 
45nm NW 
201615Z AUTO 00000KT 10SM M07/M14 A3055 RMK AO1 T10701140
KFCS 
49nm NE 
201558Z AUTO 34007KT 10SM CLR M02/M12 A3037 RMK AO2 SLP352 T10171124 $
KRCV 
50nm W 
201615Z AUTO 26011KT 10SM CLR M08/M15 A3048 RMK AO2 T10851155
TAF
KALS 
42nm SW 
201128Z 2012/2112 VRB03KT P6SM SCT005 BKN250 FM201800 VRB04KT P6SM SCT150 BKN200 FM202300 VRB04KT P6SM BKN140 FM210300 VRB03KT P6SM BKN090 FM211100 VRB03KT 5SM BR BKN010 OVC060
KPUB 
44nm E 
201128Z 2012/2112 VRB03KT P6SM FEW250 FM201700 VRB05KT P6SM BKN250 FM202000 11006KT P6SM BKN250 FM210400 VRB05KT P6SM BKN150 FM210800 VRB03KT P6SM SCT050 BKN100
KFCS 
49nm NE 
201310Z 2013/2119 VRB06KT 9999 SKC QNH3039INS BECMG 2017/2018 15009KT 9999 FEW200 QNH3030INS BECMG 2101/2102 VRB06KT 9999 FEW150 QNH3018INS BECMG 2116/2117 25009KT 9999 FEW200 QNH2996INS TX09/2023Z TNM11/2014Z
NOTAMs
Click for the latest NOTAMs
NOTAMs are issued by the DoD/FAA and will open in a separate window not controlled by AirNav.

 

 
 

FBO, Fuel Providers, and Aircraft Ground Support

  
 Business Name 
 
 Contact 
 
 Services / Description 
 
Fuel Prices
 
Comments
  
 SilverWest/Custer County Airport
122.90
719-783-2695
[web site]
[email]
Silver West Airport is located in the beautiful rocky mountains. At the base of both the Sangre de Cristo Mountain Range and the Wet Mountian Range.

More info about SilverWest/Custer County Airport
Phillips 66
100LL
SS $4.55 
 Updated 15-Jan-2020
 
   1 read write
SS=Self service
Update Fuel Prices
 

Would you like to see your business listed on this page?

 If your business provides an interesting product or service to pilots, flight crews, aircraft, or users of the Silver West Airport, you should consider listing it here.  To start the listing process, click on the button below
 
Add a business
 

Other Pages about Silver West Airport

silverwestairport.custercountygov.com
 
Update a link
 
Copyright © AirNav, LLC. All rights reserved. Privacy Policy  Contact